Time;durP1;ratioP1;P1;durP2;ratioP2;P2;SDS_P1;SDS_P2;PMS_P1;PMS_P2;Temp;Humidity;BMP_temperature;BMP_pressure;BME280_temperature;BME280_humidity;BME280_pressure;Samples;Min_cycle;Max_cycle;Signal;HPM_P1;HPM_P2
2023/03/02 00:00:16;;;;;;;56.55;21.13;;;;;;;;;;5032717;28;20050;-84
2023/03/02 00:02:43;;;;;;;54.50;21.35;;;;;;;;;;5033948;28;20041;-84
2023/03/02 00:05:09;;;;;;;58.40;22.50;;;;;;;;;;5035226;28;20049;-84
2023/03/02 00:07:36;;;;;;;70.35;23.50;;;;;;;;;;5032948;28;20494;-84
2023/03/02 00:10:04;;;;;;;57.97;20.83;;;;;;;;;;5032704;28;20643;-83
2023/03/02 00:12:31;;;;;;;55.63;20.92;;;;;;;;;;5033769;28;20064;-85
2023/03/02 00:14:58;;;;;;;56.25;21.55;;;;;;;;;;5017050;28;20059;-83
2023/03/02 00:17:27;;;;;;;51.70;20.00;;;;;;;;;;5034016;28;20042;-82
2023/03/02 00:20:06;;;;;;;52.00;19.58;;;;;;;;;;5031628;28;20045;-83
2023/03/02 00:22:32;;;;;;;50.83;20.25;;;;;;;;;;5031019;28;20068;-84
2023/03/02 00:24:59;;;;;;;54.08;21.48;;;;;;;;;;5032919;28;20048;-84
2023/03/02 00:27:28;;;;;;;52.55;20.40;;;;;;;;;;5036025;28;20045;-84
2023/03/02 00:29:55;;;;;;;59.25;21.48;;;;;;;;;;5036138;28;20065;-83
2023/03/02 00:32:22;;;;;;;51.78;19.75;;;;;;;;;;5035402;28;20048;-84
2023/03/02 00:34:49;;;;;;;57.45;21.33;;;;;;;;;;5046747;28;20060;-85
2023/03/02 00:37:15;;;;;;;55.67;21.27;;;;;;;;;;5020166;28;20042;-85
2023/03/02 00:39:42;;;;;;;52.05;19.48;;;;;;;;;;5041697;28;20059;-84
2023/03/02 00:42:09;;;;;;;49.20;19.65;;;;;;;;;;5030842;28;20473;-82
2023/03/02 00:44:35;;;;;;;56.63;21.17;;;;;;;;;;5030814;28;20037;-83
2023/03/02 00:47:02;;;;;;;51.40;20.25;;;;;;;;;;5032908;28;20056;-84
2023/03/02 00:49:29;;;;;;;55.95;20.05;;;;;;;;;;5031263;28;20144;-83
2023/03/02 00:51:55;;;;;;;49.60;19.08;;;;;;;;;;4998308;28;20053;-83
2023/03/02 00:54:22;;;;;;;60.47;21.17;;;;;;;;;;4999764;28;20093;-84
2023/03/02 00:56:49;;;;;;;49.60;19.65;;;;;;;;;;5019359;28;20407;-84
2023/03/02 00:59:25;;;;;;;48.40;19.50;;;;;;;;;;5001605;28;20065;-84
2023/03/02 01:02:05;;;;;;;53.38;20.55;;;;;;;;;;5009434;28;20072;-84
2023/03/02 01:04:34;;;;;;;51.78;19.50;;;;;;;;;;5026517;28;20049;-83
2023/03/02 01:07:06;;;;;;;52.35;18.98;;;;;;;;;;5029850;28;20065;-83
2023/03/02 01:09:33;;;;;;;51.35;20.20;;;;;;;;;;5029481;28;20117;-83
2023/03/02 01:12:00;;;;;;;50.55;18.80;;;;;;;;;;5029612;28;20137;-84
2023/03/02 01:14:26;;;;;;;56.45;20.25;;;;;;;;;;5029827;28;20050;-83
2023/03/02 01:16:53;;;;;;;57.25;19.67;;;;;;;;;;5027083;28;20038;-84
2023/03/02 01:19:20;;;;;;;50.40;19.10;;;;;;;;;;5026842;28;20057;-82
2023/03/02 01:21:46;;;;;;;48.42;19.63;;;;;;;;;;5019342;28;20058;-83
2023/03/02 01:24:13;;;;;;;49.20;19.23;;;;;;;;;;5018857;28;20050;-82
2023/03/02 01:26:39;;;;;;;55.17;20.52;;;;;;;;;;5015618;28;20088;-83
2023/03/02 01:29:06;;;;;;;46.38;18.75;;;;;;;;;;5014005;28;20070;-83
2023/03/02 01:31:32;;;;;;;51.35;19.55;;;;;;;;;;5022141;28;20079;-83
2023/03/02 01:33:59;;;;;;;51.55;19.08;;;;;;;;;;5046492;28;20053;-80
2023/03/02 01:36:25;;;;;;;51.63;19.67;;;;;;;;;;5031089;28;20037;-83
2023/03/02 01:38:55;;;;;;;50.03;18.77;;;;;;;;;;5037359;28;20042;-84
2023/03/02 01:41:21;;;;;;;50.85;19.77;;;;;;;;;;5015308;28;21327;-83
2023/03/02 01:43:48;;;;;;;50.72;19.55;;;;;;;;;;5014729;28;20100;-83
2023/03/02 01:46:40;;;;;;;50.72;19.83;;;;;;;;;;5030616;28;20041;-83
2023/03/02 01:49:10;;;;;;;54.15;18.15;;;;;;;;;;5034468;28;20079;-82
2023/03/02 01:51:55;;;;;;;46.88;19.30;;;;;;;;;;5044865;28;20037;-83
2023/03/02 01:54:25;;;;;;;47.83;18.08;;;;;;;;;;5039655;28;20037;-82
2023/03/02 01:56:57;;;;;;;47.67;18.88;;;;;;;;;;5037122;28;20509;-83
2023/03/02 01:59:27;;;;;;;52.97;19.65;;;;;;;;;;5016803;28;20034;-83
2023/03/02 02:01:55;;;;;;;50.28;19.15;;;;;;;;;;5031930;28;20091;-83
2023/03/02 02:04:22;;;;;;;51.38;19.35;;;;;;;;;;5031396;28;20060;-83
2023/03/02 02:07:00;;;;;;;49.72;19.20;;;;;;;;;;5030315;28;20041;-83
2023/03/02 02:09:29;;;;;;;48.10;19.40;;;;;;;;;;5029898;28;20235;-81
2023/03/02 02:11:55;;;;;;;49.00;19.80;;;;;;;;;;5039124;28;20060;-83
2023/03/02 02:14:23;;;;;;;50.10;19.20;;;;;;;;;;5039706;28;20153;-82
2023/03/02 02:16:50;;;;;;;49.28;19.13;;;;;;;;;;5031779;28;20129;-81
2023/03/02 02:19:25;;;;;;;51.88;20.25;;;;;;;;;;5030698;28;20053;-82
2023/03/02 02:21:52;;;;;;;48.58;18.98;;;;;;;;;;5032971;28;20124;-82
2023/03/02 02:24:21;;;;;;;52.78;18.73;;;;;;;;;;5013803;28;20041;-82
2023/03/02 02:26:49;;;;;;;54.28;19.20;;;;;;;;;;5029920;28;20127;-84
2023/03/02 02:29:21;;;;;;;52.42;19.85;;;;;;;;;;5029565;28;20044;-84
2023/03/02 02:31:52;;;;;;;48.20;19.88;;;;;;;;;;5035343;28;20177;-83
2023/03/02 02:34:33;;;;;;;54.50;19.63;;;;;;;;;;5055057;28;20073;-83
2023/03/02 02:37:10;;;;;;;50.15;19.15;;;;;;;;;;5055722;28;20044;-83
2023/03/02 02:39:39;;;;;;;49.30;19.00;;;;;;;;;;5051957;28;20419;-84
2023/03/02 02:42:09;;;;;;;50.63;20.13;;;;;;;;;;5047281;28;20127;-82
2023/03/02 02:44:39;;;;;;;50.38;19.60;;;;;;;;;;5028012;28;20046;-82
2023/03/02 02:47:18;;;;;;;52.45;20.05;;;;;;;;;;5021222;28;20478;-83
2023/03/02 02:49:45;;;;;;;44.28;18.85;;;;;;;;;;5045817;28;20478;-84
2023/03/02 02:52:13;;;;;;;53.55;19.05;;;;;;;;;;5033099;28;20132;-83
2023/03/02 02:54:41;;;;;;;45.80;18.98;;;;;;;;;;5053392;28;20068;-84
2023/03/02 02:57:09;;;;;;;49.17;19.73;;;;;;;;;;5051668;28;20033;-82
2023/03/02 02:59:38;;;;;;;47.10;18.98;;;;;;;;;;5069686;28;20041;-83
2023/03/02 03:02:09;;;;;;;55.42;20.25;;;;;;;;;;5049625;28;20049;-84
2023/03/02 03:04:36;;;;;;;48.15;19.13;;;;;;;;;;5046323;28;20109;-82
2023/03/02 03:07:04;;;;;;;49.17;17.98;;;;;;;;;;5055308;28;20079;-82
2023/03/02 03:09:31;;;;;;;55.72;21.10;;;;;;;;;;5058905;28;20099;-83
2023/03/02 03:12:01;;;;;;;50.28;19.65;;;;;;;;;;5054997;28;20056;-84
2023/03/02 03:14:33;;;;;;;49.78;19.15;;;;;;;;;;5036916;28;20041;-83
2023/03/02 03:16:59;;;;;;;54.03;19.95;;;;;;;;;;5052551;28;20044;-82
2023/03/02 03:19:28;;;;;;;50.97;19.13;;;;;;;;;;5053447;28;20123;-83
2023/03/02 03:22:00;;;;;;;52.05;19.25;;;;;;;;;;5052589;28;20045;-82
2023/03/02 03:24:31;;;;;;;46.53;19.17;;;;;;;;;;5052228;28;20037;-83
2023/03/02 03:26:58;;;;;;;46.38;18.55;;;;;;;;;;5071021;28;20037;-83
2023/03/02 03:29:26;;;;;;;47.97;18.60;;;;;;;;;;5071164;28;20043;-82
2023/03/02 03:31:57;;;;;;;49.55;19.15;;;;;;;;;;5056563;28;20052;-83
2023/03/02 03:34:24;;;;;;;45.42;18.73;;;;;;;;;;5052821;28;20047;-83
2023/03/02 03:36:51;;;;;;;52.35;19.17;;;;;;;;;;5052295;28;20052;-83
2023/03/02 03:39:19;;;;;;;50.25;18.33;;;;;;;;;;5052360;28;20053;-83
2023/03/02 03:41:47;;;;;;;54.80;18.98;;;;;;;;;;5051826;28;20461;-83
2023/03/02 03:44:16;;;;;;;50.28;19.42;;;;;;;;;;5051360;28;20528;-83
2023/03/02 03:46:43;;;;;;;46.83;18.55;;;;;;;;;;5050537;28;20474;-83
2023/03/02 03:49:10;;;;;;;48.05;19.15;;;;;;;;;;5052128;28;20171;-83
2023/03/02 03:51:37;;;;;;;52.33;19.73;;;;;;;;;;5050507;28;20037;-82
2023/03/02 03:54:07;;;;;;;50.05;19.35;;;;;;;;;;5039265;28;20071;-83
2023/03/02 03:56:38;;;;;;;53.75;20.08;;;;;;;;;;5032058;28;20034;-83
2023/03/02 03:59:06;;;;;;;56.17;19.92;;;;;;;;;;5034327;28;20041;-84
2023/03/02 04:01:43;;;;;;;47.88;18.17;;;;;;;;;;5036706;28;20057;-83
2023/03/02 04:04:15;;;;;;;50.08;19.50;;;;;;;;;;5019664;28;20378;-83
2023/03/02 04:06:42;;;;;;;50.85;19.52;;;;;;;;;;5034071;28;20045;-83
2023/03/02 04:09:11;;;;;;;51.45;18.90;;;;;;;;;;5033842;28;20063;-82
2023/03/02 04:11:39;;;;;;;53.60;20.92;;;;;;;;;;5032636;28;20040;-84
2023/03/02 04:14:06;;;;;;;60.80;20.45;;;;;;;;;;5031586;28;20108;-83
2023/03/02 04:16:34;;;;;;;53.28;19.58;;;;;;;;;;5032156;28;20041;-81
2023/03/02 04:19:01;;;;;;;52.45;20.77;;;;;;;;;;5033293;28;20128;-82
2023/03/02 04:21:28;;;;;;;57.05;20.42;;;;;;;;;;5032866;28;20521;-81
2023/03/02 04:23:55;;;;;;;51.65;21.27;;;;;;;;;;5032823;28;20068;-82
2023/03/02 04:26:22;;;;;;;54.78;21.85;;;;;;;;;;5024404;28;20034;-82
2023/03/02 04:28:49;;;;;;;55.40;20.35;;;;;;;;;;5025112;28;20137;-82
2023/03/02 04:31:17;;;;;;;52.05;19.98;;;;;;;;;;5035512;28;20041;-83
2023/03/02 04:33:44;;;;;;;52.35;20.20;;;;;;;;;;5035223;28;20050;-83
2023/03/02 04:36:11;;;;;;;52.63;20.02;;;;;;;;;;5035994;28;20417;-82
2023/03/02 04:38:37;;;;;;;56.35;20.77;;;;;;;;;;5036376;28;20095;-83
2023/03/02 04:41:04;;;;;;;60.60;20.75;;;;;;;;;;5033418;28;20509;-82
2023/03/02 04:43:33;;;;;;;53.60;20.05;;;;;;;;;;5030913;28;20048;-81
2023/03/02 04:46:00;;;;;;;53.85;20.63;;;;;;;;;;5031375;28;20069;-83
2023/03/02 04:48:27;;;;;;;49.13;19.25;;;;;;;;;;5033045;28;20133;-83
2023/03/02 04:50:53;;;;;;;51.05;21.20;;;;;;;;;;5050406;28;20041;-83
2023/03/02 04:53:21;;;;;;;51.85;20.27;;;;;;;;;;5055696;28;20045;-85
2023/03/02 04:55:48;;;;;;;52.28;19.73;;;;;;;;;;5053270;28;20510;-84
2023/03/02 04:58:14;;;;;;;52.67;20.35;;;;;;;;;;5061807;28;20101;-84
2023/03/02 05:00:41;;;;;;;50.47;19.65;;;;;;;;;;5069906;28;20059;-82
2023/03/02 05:03:08;;;;;;;49.75;19.67;;;;;;;;;;5067924;28;20045;-82
2023/03/02 05:05:35;;;;;;;54.28;20.13;;;;;;;;;;5068952;28;20045;-83
2023/03/02 05:08:01;;;;;;;50.90;20.00;;;;;;;;;;5070754;28;20094;-83
2023/03/02 05:10:28;;;;;;;57.72;20.38;;;;;;;;;;5069010;28;20053;-82
2023/03/02 05:13:01;;;;;;;49.85;20.13;;;;;;;;;;5061361;28;20030;-82
2023/03/02 05:15:29;;;;;;;52.72;19.83;;;;;;;;;;5025632;28;20045;-81
2023/03/02 05:17:56;;;;;;;56.60;19.88;;;;;;;;;;5050111;28;20110;-83
2023/03/02 05:20:29;;;;;;;49.03;20.10;;;;;;;;;;5049835;28;20030;-83
2023/03/02 05:23:00;;;;;;;50.17;19.73;;;;;;;;;;5033063;28;20025;-81
2023/03/02 05:25:27;;;;;;;59.67;21.25;;;;;;;;;;5045253;28;20048;-82
2023/03/02 05:27:54;;;;;;;52.95;20.98;;;;;;;;;;5035671;28;20552;-82
2023/03/02 05:30:21;;;;;;;56.03;20.70;;;;;;;;;;5034034;28;20585;-83
2023/03/02 05:32:48;;;;;;;50.72;20.38;;;;;;;;;;5051973;28;20075;-83
2023/03/02 05:35:15;;;;;;;56.92;20.67;;;;;;;;;;5040881;28;20053;-84
2023/03/02 05:37:43;;;;;;;67.18;24.00;;;;;;;;;;5036575;28;20117;-83
2023/03/02 05:40:14;;;;;;;69.07;24.30;;;;;;;;;;5030262;28;20044;-83
2023/03/02 05:42:41;;;;;;;65.57;24.88;;;;;;;;;;5043070;28;20057;-84
2023/03/02 05:45:11;;;;;;;75.03;25.75;;;;;;;;;;5041671;28;20061;-85
2023/03/02 05:47:37;;;;;;;67.18;23.75;;;;;;;;;;5033640;28;20414;-83
2023/03/02 05:50:05;;;;;;;59.10;22.25;;;;;;;;;;5034585;28;20093;-84
2023/03/02 05:52:32;;;;;;;62.08;22.48;;;;;;;;;;5035581;28;20128;-83
2023/03/02 05:54:58;;;;;;;58.08;21.95;;;;;;;;;;5036688;28;20052;-83
2023/03/02 05:57:25;;;;;;;54.90;21.63;;;;;;;;;;5040848;28;20049;-83
2023/03/02 05:59:52;;;;;;;60.45;22.02;;;;;;;;;;5039524;28;20045;-84
2023/03/02 06:02:18;;;;;;;59.47;21.63;;;;;;;;;;5041944;28;20045;-83
2023/03/02 06:04:45;;;;;;;63.17;22.25;;;;;;;;;;5041245;28;20042;-84
2023/03/02 06:07:12;;;;;;;57.47;21.52;;;;;;;;;;5047723;28;20064;-81
2023/03/02 06:09:39;;;;;;;64.20;23.20;;;;;;;;;;5067198;28;20045;-80
2023/03/02 06:12:06;;;;;;;58.60;22.63;;;;;;;;;;5070652;28;20110;-84
2023/03/02 06:14:34;;;;;;;63.30;22.23;;;;;;;;;;5069775;28;20033;-84
2023/03/02 06:17:01;;;;;;;62.28;22.63;;;;;;;;;;5065690;28;20075;-84
2023/03/02 06:19:28;;;;;;;55.97;21.80;;;;;;;;;;5064252;28;20102;-84
2023/03/02 06:21:54;;;;;;;54.70;20.73;;;;;;;;;;5068711;28;22560;-84
2023/03/02 06:24:21;;;;;;;55.40;21.85;;;;;;;;;;5068002;28;20699;-84
2023/03/02 06:26:47;;;;;;;58.20;20.27;;;;;;;;;;5067426;28;20079;-85
2023/03/02 06:29:14;;;;;;;86.50;30.73;;;;;;;;;;5061930;28;20045;-84
2023/03/02 06:31:41;;;;;;;63.75;23.17;;;;;;;;;;5054132;28;20041;-84
2023/03/02 06:34:07;;;;;;;55.97;22.88;;;;;;;;;;5058619;28;20640;-84
2023/03/02 06:36:37;;;;;;;60.08;21.83;;;;;;;;;;5057400;28;20264;-85
2023/03/02 06:39:05;;;;;;;57.30;21.17;;;;;;;;;;5062294;28;20132;-84
2023/03/02 06:41:34;;;;;;;50.85;19.23;;;;;;;;;;5061058;28;20049;-83
2023/03/02 06:44:02;;;;;;;46.50;18.67;;;;;;;;;;5063300;28;20045;-84
2023/03/02 06:46:28;;;;;;;50.95;19.90;;;;;;;;;;5064426;28;20068;-84
2023/03/02 06:48:55;;;;;;;55.33;20.33;;;;;;;;;;5048466;28;20045;-84
2023/03/02 06:51:22;;;;;;;59.55;21.80;;;;;;;;;;5052859;28;20063;-85
2023/03/02 06:53:49;;;;;;;61.75;21.95;;;;;;;;;;5068419;28;20049;-85
2023/03/02 06:56:15;;;;;;;56.58;21.35;;;;;;;;;;5070424;28;20083;-85
2023/03/02 06:58:42;;;;;;;59.55;22.70;;;;;;;;;;5068065;28;20047;-84
2023/03/02 07:01:08;;;;;;;57.78;21.40;;;;;;;;;;5068953;28;20049;-84
2023/03/02 07:03:35;;;;;;;57.47;21.73;;;;;;;;;;5051126;28;20064;-84
2023/03/02 07:06:02;;;;;;;67.30;23.83;;;;;;;;;;5074349;28;20049;-83
2023/03/02 07:08:29;;;;;;;59.50;22.23;;;;;;;;;;5073556;28;20100;-84
2023/03/02 07:10:56;;;;;;;57.17;22.75;;;;;;;;;;5070743;28;20049;-85
2023/03/02 07:13:22;;;;;;;59.58;21.67;;;;;;;;;;5060025;28;20105;-83
2023/03/02 07:15:49;;;;;;;58.45;21.77;;;;;;;;;;5053849;28;20048;-83
2023/03/02 07:18:16;;;;;;;53.85;20.48;;;;;;;;;;5057330;28;20041;-84
2023/03/02 07:20:43;;;;;;;53.95;20.60;;;;;;;;;;5063411;28;20502;-82
2023/03/02 07:23:09;;;;;;;52.53;21.05;;;;;;;;;;5061647;28;20045;-83
2023/03/02 07:25:36;;;;;;;52.15;20.85;;;;;;;;;;5065846;28;20071;-82
2023/03/02 07:28:03;;;;;;;55.83;20.80;;;;;;;;;;5059696;28;20471;-85
2023/03/02 07:30:29;;;;;;;54.80;21.48;;;;;;;;;;5058929;28;20048;-85
2023/03/02 07:32:56;;;;;;;54.90;20.48;;;;;;;;;;5054235;28;20049;-83
2023/03/02 07:35:23;;;;;;;56.45;21.52;;;;;;;;;;5054789;28;20037;-83
2023/03/02 07:37:50;;;;;;;48.65;19.88;;;;;;;;;;5063917;28;20067;-84
2023/03/02 07:40:17;;;;;;;48.05;19.35;;;;;;;;;;5054369;28;20075;-84
2023/03/02 07:42:44;;;;;;;48.50;19.88;;;;;;;;;;5069031;28;20052;-83
2023/03/02 07:45:12;;;;;;;51.88;19.88;;;;;;;;;;5072363;28;20037;-83
2023/03/02 07:47:39;;;;;;;44.63;19.02;;;;;;;;;;5069982;28;20600;-82
2023/03/02 07:50:07;;;;;;;54.47;19.05;;;;;;;;;;5069106;28;20025;-84
2023/03/02 07:52:34;;;;;;;50.85;19.35;;;;;;;;;;5056811;28;20048;-84
2023/03/02 07:55:01;;;;;;;53.53;19.02;;;;;;;;;;5058015;28;20159;-83
2023/03/02 07:57:28;;;;;;;42.70;18.45;;;;;;;;;;5054622;28;20109;-84
2023/03/02 07:59:54;;;;;;;47.70;19.13;;;;;;;;;;5054037;28;20281;-84
2023/03/02 08:02:21;;;;;;;46.33;18.35;;;;;;;;;;5036589;28;20041;-83
2023/03/02 08:04:48;;;;;;;51.42;19.58;;;;;;;;;;5055108;28;20075;-85
2023/03/02 08:07:15;;;;;;;44.97;19.25;;;;;;;;;;5057061;28;20037;-85
2023/03/02 08:09:41;;;;;;;51.63;19.85;;;;;;;;;;5054837;28;20063;-83
2023/03/02 08:12:08;;;;;;;52.90;21.45;;;;;;;;;;5032253;28;20096;-83
2023/03/02 08:14:36;;;;;;;49.55;20.73;;;;;;;;;;5066350;28;20048;-85
2023/03/02 08:17:04;;;;;;;46.53;19.48;;;;;;;;;;5058279;28;20049;-84
2023/03/02 08:19:30;;;;;;;49.92;20.98;;;;;;;;;;5060621;28;20045;-83
2023/03/02 08:21:57;;;;;;;49.28;19.98;;;;;;;;;;5059922;28;20064;-83
2023/03/02 08:24:24;;;;;;;49.55;20.10;;;;;;;;;;5068912;28;20049;-82
2023/03/02 08:26:50;;;;;;;45.33;19.38;;;;;;;;;;5064884;28;20524;-83
2023/03/02 08:29:17;;;;;;;49.72;20.02;;;;;;;;;;5059875;28;20071;-85
2023/03/02 08:31:44;;;;;;;49.10;19.08;;;;;;;;;;5052843;28;20072;-84
2023/03/02 08:34:23;;;;;;;51.78;19.05;;;;;;;;;;5058149;28;20214;-83
2023/03/02 08:36:50;;;;;;;44.30;18.88;;;;;;;;;;5057254;28;20068;-83
2023/03/02 08:39:17;;;;;;;48.55;19.63;;;;;;;;;;5069392;28;20045;-83
2023/03/02 08:41:43;;;;;;;50.60;19.63;;;;;;;;;;5070265;28;20065;-82
2023/03/02 08:44:10;;;;;;;47.30;19.67;;;;;;;;;;5066146;28;20170;-86
2023/03/02 08:46:37;;;;;;;44.70;19.50;;;;;;;;;;5053615;28;20045;-83
2023/03/02 08:49:03;;;;;;;41.97;18.85;;;;;;;;;;5046953;28;20049;-84
2023/03/02 08:51:30;;;;;;;44.30;18.73;;;;;;;;;;5057187;28;20041;-83
2023/03/02 08:53:57;;;;;;;51.33;19.90;;;;;;;;;;5064721;28;20072;-84
2023/03/02 08:56:25;;;;;;;44.60;19.48;;;;;;;;;;5060565;28;20153;-84
2023/03/02 08:58:53;;;;;;;51.17;19.15;;;;;;;;;;5069652;28;20051;-84
2023/03/02 09:01:24;;;;;;;42.60;18.92;;;;;;;;;;5070685;28;20071;-82
2023/03/02 09:03:51;;;;;;;46.38;18.98;;;;;;;;;;5066087;28;20045;-85
2023/03/02 09:06:17;;;;;;;45.38;19.15;;;;;;;;;;5060825;28;20108;-85
2023/03/02 09:08:44;;;;;;;43.47;18.73;;;;;;;;;;5063572;28;20072;-84
2023/03/02 09:11:11;;;;;;;40.78;17.52;;;;;;;;;;5053544;28;20049;-84
2023/03/02 09:13:38;;;;;;;45.53;18.52;;;;;;;;;;5047991;28;20037;-83
2023/03/02 09:16:07;;;;;;;40.10;17.52;;;;;;;;;;5061862;28;20129;-82
2023/03/02 09:18:34;;;;;;;46.65;18.30;;;;;;;;;;5059161;28;20048;-82
2023/03/02 09:21:01;;;;;;;40.70;17.73;;;;;;;;;;5066917;28;20056;-85
2023/03/02 09:23:29;;;;;;;38.17;17.67;;;;;;;;;;5064772;28;20044;-85
2023/03/02 09:25:57;;;;;;;47.85;19.13;;;;;;;;;;5052780;28;20110;-82
2023/03/02 09:28:23;;;;;;;46.33;19.58;;;;;;;;;;5048593;28;20045;-83
2023/03/02 09:30:54;;;;;;;48.03;20.60;;;;;;;;;;5048712;28;20106;-82
2023/03/02 09:33:20;;;;;;;53.40;20.20;;;;;;;;;;5056336;28;20036;-83
2023/03/02 09:35:53;;;;;;;51.88;20.95;;;;;;;;;;5053213;28;20041;-82
2023/03/02 09:38:21;;;;;;;36.65;16.20;;;;;;;;;;5048653;28;20044;-82
2023/03/02 09:40:48;;;;;;;37.78;15.38;;;;;;;;;;5048588;28;20115;-82
2023/03/02 09:43:24;;;;;;;34.08;13.93;;;;;;;;;;5051100;28;20087;-82
2023/03/02 09:45:51;;;;;;;30.92;13.90;;;;;;;;;;5033518;28;20750;-82
2023/03/02 09:48:18;;;;;;;33.63;13.52;;;;;;;;;;5049269;28;20048;-82
2023/03/02 09:50:52;;;;;;;30.83;13.20;;;;;;;;;;5044380;28;20052;-83
2023/03/02 09:53:22;;;;;;;30.60;13.65;;;;;;;;;;5043155;28;20064;-83
2023/03/02 09:55:53;;;;;;;30.77;14.07;;;;;;;;;;5037959;28;20405;-83
2023/03/02 09:58:33;;;;;;;30.77;13.95;;;;;;;;;;5031514;28;20498;-82
2023/03/02 10:01:01;;;;;;;31.27;13.98;;;;;;;;;;5031297;28;20045;-83
2023/03/02 10:03:33;;;;;;;33.50;14.70;;;;;;;;;;5031509;28;20041;-83
2023/03/02 10:06:00;;;;;;;31.27;14.93;;;;;;;;;;5032063;28;20551;-83
2023/03/02 10:08:36;;;;;;;33.85;15.50;;;;;;;;;;5032626;28;20463;-83
2023/03/02 10:11:09;;;;;;;31.75;16.23;;;;;;;;;;5032373;28;20045;-83
2023/03/02 10:13:53;;;;;;;27.00;13.93;;;;;;;;;;5032314;28;20095;-83
2023/03/02 10:16:20;;;;;;;27.92;14.52;;;;;;;;;;5030602;28;20072;-83
2023/03/02 10:19:07;;;;;;;31.40;14.30;;;;;;;;;;5033150;28;20115;-83
2023/03/02 10:21:37;;;;;;;29.58;13.52;;;;;;;;;;5047949;28;20045;-84
2023/03/02 10:24:48;;;;;;;28.17;13.75;;;;;;;;;;4998167;28;20048;-82
2023/03/02 10:27:44;;;;;;;25.48;13.50;;;;;;;;;;4956565;28;20069;-83
2023/03/02 10:30:26;;;;;;;29.92;13.60;;;;;;;;;;5026345;28;20370;-82
2023/03/02 10:32:55;;;;;;;32.92;15.27;;;;;;;;;;5040249;28;20461;-82
2023/03/02 10:35:23;;;;;;;30.35;14.93;;;;;;;;;;5033547;28;20129;-84
2023/03/02 10:37:50;;;;;;;29.05;14.65;;;;;;;;;;5031955;28;20057;-84
2023/03/02 10:40:36;;;;;;;30.50;15.40;;;;;;;;;;5031047;28;20450;-85
2023/03/02 10:43:03;;;;;;;26.75;14.60;;;;;;;;;;5030960;28;20099;-83
2023/03/02 10:45:31;;;;;;;29.90;14.85;;;;;;;;;;5032866;28;20068;-83
2023/03/02 10:48:00;;;;;;;32.25;15.15;;;;;;;;;;5039344;28;20294;-83
2023/03/02 10:50:29;;;;;;;30.50;16.15;;;;;;;;;;5029583;28;20468;-84
2023/03/02 10:52:56;;;;;;;30.92;15.27;;;;;;;;;;5050653;28;20266;-83
2023/03/02 10:55:27;;;;;;;30.42;14.90;;;;;;;;;;5038559;28;20053;-84
2023/03/02 10:58:02;;;;;;;21.98;12.68;;;;;;;;;;5033460;28;20104;-83
2023/03/02 11:00:30;;;;;;;25.23;13.02;;;;;;;;;;5032727;28;20053;-83
2023/03/02 11:02:57;;;;;;;25.75;12.52;;;;;;;;;;5027837;28;20049;-82
2023/03/02 11:05:30;;;;;;;23.75;13.75;;;;;;;;;;5028789;28;20046;-83
2023/03/02 11:08:01;;;;;;;21.38;11.65;;;;;;;;;;5043508;28;20395;-82
2023/03/02 11:10:29;;;;;;;28.33;13.13;;;;;;;;;;5045642;28;20141;-83
2023/03/02 11:12:55;;;;;;;29.83;13.25;;;;;;;;;;5036165;28;21491;-83
2023/03/02 11:15:28;;;;;;;26.13;13.63;;;;;;;;;;5019706;28;20144;-83
2023/03/02 11:18:05;;;;;;;27.10;14.82;;;;;;;;;;5036425;28;20060;-83
2023/03/02 11:20:43;;;;;;;24.98;13.77;;;;;;;;;;5033247;28;20042;-82
2023/03/02 11:23:13;;;;;;;25.20;13.48;;;;;;;;;;5031214;28;20049;-82
2023/03/02 11:25:44;;;;;;;26.38;14.27;;;;;;;;;;5033357;28;20426;-83
2023/03/02 11:28:24;;;;;;;27.55;14.55;;;;;;;;;;5046899;28;20136;-82
2023/03/02 11:30:52;;;;;;;30.50;14.80;;;;;;;;;;5045015;28;20041;-83
2023/03/02 11:33:22;;;;;;;25.52;14.73;;;;;;;;;;5039003;28;20040;-83
2023/03/02 11:35:54;;;;;;;27.85;15.00;;;;;;;;;;5037474;28;20052;-83
2023/03/02 11:38:28;;;;;;;30.13;14.70;;;;;;;;;;5038016;28;20115;-83
2023/03/02 11:41:01;;;;;;;27.83;14.25;;;;;;;;;;5040455;28;20115;-82
2023/03/02 11:43:28;;;;;;;28.80;14.82;;;;;;;;;;5050246;28;20038;-83
2023/03/02 11:45:58;;;;;;;28.83;15.82;;;;;;;;;;5038915;28;20046;-83
2023/03/02 11:48:30;;;;;;;24.48;14.15;;;;;;;;;;5039493;28;20129;-83
2023/03/02 11:50:58;;;;;;;26.48;14.70;;;;;;;;;;5037662;28;20417;-83
2023/03/02 11:53:28;;;;;;;26.63;15.55;;;;;;;;;;5032802;28;20398;-83
2023/03/02 11:55:55;;;;;;;25.23;14.13;;;;;;;;;;5032892;28;20091;-83
2023/03/02 11:58:24;;;;;;;30.45;15.98;;;;;;;;;;5032889;28;20080;-83
2023/03/02 12:00:51;;;;;;;27.50;15.45;;;;;;;;;;5035179;28;20053;-83
2023/03/02 12:03:22;;;;;;;27.02;15.50;;;;;;;;;;5033317;28;20045;-83
2023/03/02 12:05:51;;;;;;;31.20;14.80;;;;;;;;;;5034610;28;20041;-83
2023/03/02 12:08:18;;;;;;;26.45;14.88;;;;;;;;;;5034696;28;20046;-83
2023/03/02 12:11:03;;;;;;;26.60;15.48;;;;;;;;;;5033738;28;20041;-82
2023/03/02 12:13:32;;;;;;;25.83;14.68;;;;;;;;;;5034059;28;20123;-85
2023/03/02 12:15:59;;;;;;;24.25;14.27;;;;;;;;;;5041811;28;20114;-84
2023/03/02 12:18:26;;;;;;;27.27;15.27;;;;;;;;;;5045121;28;20045;-85
2023/03/02 12:20:58;;;;;;;27.90;15.57;;;;;;;;;;5050106;28;20053;-84
2023/03/02 12:23:25;;;;;;;29.55;16.05;;;;;;;;;;5043995;28;20045;-84
2023/03/02 12:26:04;;;;;;;28.63;16.23;;;;;;;;;;5041138;28;20045;-84
2023/03/02 12:28:35;;;;;;;26.65;15.40;;;;;;;;;;5048491;28;20161;-83
2023/03/02 12:31:03;;;;;;;27.65;15.90;;;;;;;;;;5045890;28;20049;-84
2023/03/02 12:33:30;;;;;;;27.58;14.38;;;;;;;;;;5044172;28;20042;-84
2023/03/02 12:36:09;;;;;;;29.23;15.68;;;;;;;;;;5037324;28;20097;-85
2023/03/02 12:38:37;;;;;;;26.60;15.57;;;;;;;;;;5037645;28;20038;-83
2023/03/02 12:41:13;;;;;;;26.45;15.13;;;;;;;;;;5037647;28;20124;-84
2023/03/02 12:44:02;;;;;;;33.80;17.15;;;;;;;;;;5041241;28;20049;-83
2023/03/02 12:46:32;;;;;;;29.92;16.65;;;;;;;;;;5039751;28;20045;-83
2023/03/02 12:49:00;;;;;;;30.23;15.52;;;;;;;;;;5043561;28;20053;-83
2023/03/02 12:51:28;;;;;;;26.70;15.07;;;;;;;;;;5063526;28;20064;-83
2023/03/02 12:54:04;;;;;;;26.88;15.15;;;;;;;;;;5055450;28;20037;-84
2023/03/02 12:56:32;;;;;;;33.75;15.20;;;;;;;;;;5058618;28;20033;-83
2023/03/02 12:58:59;;;;;;;26.05;16.30;;;;;;;;;;5062897;28;20143;-83
2023/03/02 13:01:27;;;;;;;30.45;15.55;;;;;;;;;;5061744;28;20037;-84
2023/03/02 13:03:54;;;;;;;29.55;15.88;;;;;;;;;;5059345;28;20455;-84
2023/03/02 13:06:22;;;;;;;28.65;15.20;;;;;;;;;;5057336;28;20409;-82
2023/03/02 13:08:51;;;;;;;27.38;16.02;;;;;;;;;;5059348;28;20060;-83
2023/03/02 13:11:29;;;;;;;29.77;16.25;;;;;;;;;;5062344;28;20053;-82
2023/03/02 13:13:57;;;;;;;32.30;15.15;;;;;;;;;;5056855;28;20053;-84
2023/03/02 13:16:29;;;;;;;27.92;14.73;;;;;;;;;;5051577;28;20513;-83
2023/03/02 13:18:59;;;;;;;26.40;14.18;;;;;;;;;;5052032;28;20049;-83
2023/03/02 13:21:31;;;;;;;26.33;14.15;;;;;;;;;;5052894;28;20037;-83
2023/03/02 13:23:58;;;;;;;25.98;15.00;;;;;;;;;;5054778;28;20069;-83
2023/03/02 13:26:25;;;;;;;25.65;14.18;;;;;;;;;;5054464;28;20048;-84
2023/03/02 13:29:02;;;;;;;22.80;13.85;;;;;;;;;;5038818;28;20193;-83
2023/03/02 13:31:30;;;;;;;24.13;13.85;;;;;;;;;;5057013;28;20067;-83
2023/03/02 13:33:58;;;;;;;24.38;14.50;;;;;;;;;;5059060;28;20048;-84
2023/03/02 13:36:27;;;;;;;25.08;12.85;;;;;;;;;;5057359;28;20036;-84
2023/03/02 13:39:01;;;;;;;24.35;13.20;;;;;;;;;;5058625;28;20053;-83
2023/03/02 13:41:29;;;;;;;26.60;14.40;;;;;;;;;;5055040;28;20105;-83
2023/03/02 13:43:56;;;;;;;23.17;13.43;;;;;;;;;;5035260;28;20049;-84
2023/03/02 13:46:25;;;;;;;27.02;14.20;;;;;;;;;;5038967;28;20129;-82
2023/03/02 13:48:59;;;;;;;22.33;12.95;;;;;;;;;;5035885;28;20128;-83
2023/03/02 13:51:38;;;;;;;24.95;12.85;;;;;;;;;;5036560;28;20037;-84
2023/03/02 13:54:10;;;;;;;22.55;13.20;;;;;;;;;;5035809;28;20056;-84
2023/03/02 13:56:39;;;;;;;24.17;12.35;;;;;;;;;;5042385;28;20089;-84
2023/03/02 13:59:12;;;;;;;23.65;11.70;;;;;;;;;;5049203;28;20093;-83
2023/03/02 14:01:40;;;;;;;21.80;11.93;;;;;;;;;;5046504;28;20049;-83
2023/03/02 14:04:10;;;;;;;22.45;11.75;;;;;;;;;;5036034;28;20042;-82
2023/03/02 14:06:37;;;;;;;26.95;11.38;;;;;;;;;;5030603;28;20140;-82
2023/03/02 14:09:04;;;;;;;23.98;11.45;;;;;;;;;;5031466;28;20037;-83
2023/03/02 14:11:32;;;;;;;19.75;11.38;;;;;;;;;;5032151;28;20064;-83
2023/03/02 14:14:02;;;;;;;22.90;11.45;;;;;;;;;;5031949;28;20053;-82
2023/03/02 14:16:28;;;;;;;17.95;9.95;;;;;;;;;;5029974;28;20045;-82
2023/03/02 14:18:55;;;;;;;21.85;10.80;;;;;;;;;;5030647;28;20045;-81
2023/03/02 14:21:23;;;;;;;22.20;10.93;;;;;;;;;;5032080;28;20048;-82
2023/03/02 14:23:51;;;;;;;25.17;10.68;;;;;;;;;;5015935;28;20128;-82
2023/03/02 14:26:34;;;;;;;25.38;10.43;;;;;;;;;;5036931;28;20534;-82